sensor_id;sensor_type;location;lat;lon;timestamp;P1;durP1;ratioP1;P2;durP2;ratioP2
78336;SDS011;67610;51.588;7.002;2023-04-26T00:00:34;5.93;;;2.35;;
78336;SDS011;67610;51.588;7.002;2023-04-26T00:03:00;4.72;;;2.42;;
78336;SDS011;67610;51.588;7.002;2023-04-26T00:05:25;5.75;;;2.58;;
78336;SDS011;67610;51.588;7.002;2023-04-26T00:07:52;6.53;;;2.30;;
78336;SDS011;67610;51.588;7.002;2023-04-26T00:10:18;6.70;;;2.40;;
78336;SDS011;67610;51.588;7.002;2023-04-26T00:12:43;5.63;;;2.40;;
78336;SDS011;67610;51.588;7.002;2023-04-26T00:15:09;5.60;;;2.70;;
78336;SDS011;67610;51.588;7.002;2023-04-26T00:17:34;4.60;;;2.40;;
78336;SDS011;67610;51.588;7.002;2023-04-26T00:20:00;3.63;;;2.30;;
78336;SDS011;67610;51.588;7.002;2023-04-26T00:22:26;3.83;;;2.30;;
78336;SDS011;67610;51.588;7.002;2023-04-26T00:24:51;4.63;;;2.30;;
78336;SDS011;67610;51.588;7.002;2023-04-26T00:27:17;8.05;;;2.65;;
78336;SDS011;67610;51.588;7.002;2023-04-26T00:29:42;6.35;;;2.65;;
78336;SDS011;67610;51.588;7.002;2023-04-26T00:32:08;6.25;;;2.50;;
78336;SDS011;67610;51.588;7.002;2023-04-26T00:34:33;5.32;;;2.60;;
78336;SDS011;67610;51.588;7.002;2023-04-26T00:37:00;4.30;;;2.28;;
78336;SDS011;67610;51.588;7.002;2023-04-26T00:39:25;7.47;;;2.40;;
78336;SDS011;67610;51.588;7.002;2023-04-26T00:41:51;3.65;;;2.25;;
78336;SDS011;67610;51.588;7.002;2023-04-26T00:44:16;4.20;;;2.13;;
78336;SDS011;67610;51.588;7.002;2023-04-26T00:46:42;4.50;;;2.40;;
78336;SDS011;67610;51.588;7.002;2023-04-26T00:49:07;4.55;;;2.45;;
78336;SDS011;67610;51.588;7.002;2023-04-26T00:51:33;6.03;;;2.45;;
78336;SDS011;67610;51.588;7.002;2023-04-26T00:54:00;8.05;;;2.50;;
78336;SDS011;67610;51.588;7.002;2023-04-26T00:56:25;6.50;;;2.45;;
78336;SDS011;67610;51.588;7.002;2023-04-26T00:58:51;4.53;;;2.50;;
78336;SDS011;67610;51.588;7.002;2023-04-26T01:01:16;5.85;;;2.45;;
78336;SDS011;67610;51.588;7.002;2023-04-26T01:03:42;8.60;;;2.80;;
78336;SDS011;67610;51.588;7.002;2023-04-26T01:06:09;6.35;;;2.60;;
78336;SDS011;67610;51.588;7.002;2023-04-26T01:08:35;5.38;;;2.85;;
78336;SDS011;67610;51.588;7.002;2023-04-26T01:11:00;7.05;;;2.53;;
78336;SDS011;67610;51.588;7.002;2023-04-26T01:13:26;5.55;;;2.65;;
78336;SDS011;67610;51.588;7.002;2023-04-26T01:15:53;7.07;;;2.78;;
78336;SDS011;67610;51.588;7.002;2023-04-26T01:18:20;4.82;;;2.45;;
78336;SDS011;67610;51.588;7.002;2023-04-26T01:20:45;8.40;;;2.97;;
78336;SDS011;67610;51.588;7.002;2023-04-26T01:23:11;5.15;;;2.65;;
78336;SDS011;67610;51.588;7.002;2023-04-26T01:25:36;4.93;;;2.88;;
78336;SDS011;67610;51.588;7.002;2023-04-26T01:28:02;7.60;;;3.03;;
78336;SDS011;67610;51.588;7.002;2023-04-26T01:30:27;6.05;;;2.90;;
78336;SDS011;67610;51.588;7.002;2023-04-26T01:32:53;7.80;;;2.55;;
78336;SDS011;67610;51.588;7.002;2023-04-26T01:35:18;6.30;;;2.70;;
78336;SDS011;67610;51.588;7.002;2023-04-26T01:37:43;6.45;;;2.60;;
78336;SDS011;67610;51.588;7.002;2023-04-26T01:40:09;6.63;;;2.60;;
78336;SDS011;67610;51.588;7.002;2023-04-26T01:42:35;8.13;;;3.20;;
78336;SDS011;67610;51.588;7.002;2023-04-26T01:45:00;6.32;;;2.72;;
78336;SDS011;67610;51.588;7.002;2023-04-26T01:47:26;4.72;;;2.83;;
78336;SDS011;67610;51.588;7.002;2023-04-26T01:49:51;10.07;;;3.42;;
78336;SDS011;67610;51.588;7.002;2023-04-26T01:52:17;7.85;;;3.15;;
78336;SDS011;67610;51.588;7.002;2023-04-26T01:54:42;5.57;;;2.78;;
78336;SDS011;67610;51.588;7.002;2023-04-26T01:57:08;5.68;;;2.75;;
78336;SDS011;67610;51.588;7.002;2023-04-26T01:59:33;5.45;;;2.78;;
78336;SDS011;67610;51.588;7.002;2023-04-26T02:01:58;5.25;;;3.03;;
78336;SDS011;67610;51.588;7.002;2023-04-26T02:04:24;6.95;;;2.78;;
78336;SDS011;67610;51.588;7.002;2023-04-26T02:06:50;8.32;;;3.00;;
78336;SDS011;67610;51.588;7.002;2023-04-26T02:09:15;5.78;;;3.10;;
78336;SDS011;67610;51.588;7.002;2023-04-26T02:11:42;7.28;;;3.88;;
78336;SDS011;67610;51.588;7.002;2023-04-26T02:14:07;7.45;;;3.53;;
78336;SDS011;67610;51.588;7.002;2023-04-26T02:16:32;7.30;;;4.47;;
78336;SDS011;67610;51.588;7.002;2023-04-26T02:18:58;8.27;;;3.42;;
78336;SDS011;67610;51.588;7.002;2023-04-26T02:21:24;8.40;;;3.67;;
78336;SDS011;67610;51.588;7.002;2023-04-26T02:23:50;7.00;;;3.20;;
78336;SDS011;67610;51.588;7.002;2023-04-26T02:26:15;9.75;;;3.65;;
78336;SDS011;67610;51.588;7.002;2023-04-26T02:28:41;9.10;;;3.83;;
78336;SDS011;67610;51.588;7.002;2023-04-26T02:31:06;8.05;;;3.55;;
78336;SDS011;67610;51.588;7.002;2023-04-26T02:33:32;7.40;;;3.58;;
78336;SDS011;67610;51.588;7.002;2023-04-26T02:35:58;9.50;;;3.85;;
78336;SDS011;67610;51.588;7.002;2023-04-26T02:38:23;8.07;;;3.72;;
78336;SDS011;67610;51.588;7.002;2023-04-26T02:40:56;8.75;;;3.80;;
78336;SDS011;67610;51.588;7.002;2023-04-26T02:43:22;7.85;;;3.78;;
78336;SDS011;67610;51.588;7.002;2023-04-26T02:45:48;8.57;;;3.80;;
78336;SDS011;67610;51.588;7.002;2023-04-26T02:48:13;5.75;;;3.33;;
78336;SDS011;67610;51.588;7.002;2023-04-26T02:50:38;8.32;;;3.60;;
78336;SDS011;67610;51.588;7.002;2023-04-26T02:53:04;8.93;;;3.92;;
78336;SDS011;67610;51.588;7.002;2023-04-26T02:55:29;7.47;;;3.92;;
78336;SDS011;67610;51.588;7.002;2023-04-26T02:57:55;10.25;;;4.13;;
78336;SDS011;67610;51.588;7.002;2023-04-26T03:00:20;9.32;;;4.13;;
78336;SDS011;67610;51.588;7.002;2023-04-26T03:02:46;7.93;;;4.18;;
78336;SDS011;67610;51.588;7.002;2023-04-26T03:05:12;8.55;;;3.95;;
78336;SDS011;67610;51.588;7.002;2023-04-26T03:07:37;9.60;;;4.40;;
78336;SDS011;67610;51.588;7.002;2023-04-26T03:10:03;7.95;;;4.18;;
78336;SDS011;67610;51.588;7.002;2023-04-26T03:12:29;12.98;;;4.50;;
78336;SDS011;67610;51.588;7.002;2023-04-26T03:14:54;9.68;;;4.43;;
78336;SDS011;67610;51.588;7.002;2023-04-26T03:17:20;11.45;;;4.10;;
78336;SDS011;67610;51.588;7.002;2023-04-26T03:19:45;9.68;;;4.32;;
78336;SDS011;67610;51.588;7.002;2023-04-26T03:22:11;9.32;;;4.40;;
78336;SDS011;67610;51.588;7.002;2023-04-26T03:24:40;8.70;;;4.00;;
78336;SDS011;67610;51.588;7.002;2023-04-26T03:27:08;7.38;;;4.00;;
78336;SDS011;67610;51.588;7.002;2023-04-26T03:29:34;9.38;;;4.40;;
78336;SDS011;67610;51.588;7.002;2023-04-26T03:31:59;8.95;;;4.30;;
78336;SDS011;67610;51.588;7.002;2023-04-26T03:34:25;9.15;;;3.88;;
78336;SDS011;67610;51.588;7.002;2023-04-26T03:36:51;11.35;;;4.00;;
78336;SDS011;67610;51.588;7.002;2023-04-26T03:39:16;11.98;;;4.53;;
78336;SDS011;67610;51.588;7.002;2023-04-26T03:41:42;10.38;;;4.10;;
78336;SDS011;67610;51.588;7.002;2023-04-26T03:44:07;10.20;;;4.07;;
78336;SDS011;67610;51.588;7.002;2023-04-26T03:46:33;8.68;;;4.35;;
78336;SDS011;67610;51.588;7.002;2023-04-26T03:48:58;10.82;;;4.53;;
78336;SDS011;67610;51.588;7.002;2023-04-26T03:51:23;11.50;;;4.47;;
78336;SDS011;67610;51.588;7.002;2023-04-26T03:53:49;9.48;;;4.30;;
78336;SDS011;67610;51.588;7.002;2023-04-26T03:56:15;8.93;;;4.60;;
78336;SDS011;67610;51.588;7.002;2023-04-26T03:58:41;9.25;;;4.93;;
78336;SDS011;67610;51.588;7.002;2023-04-26T04:01:06;8.65;;;4.40;;
78336;SDS011;67610;51.588;7.002;2023-04-26T04:03:32;7.68;;;4.40;;
78336;SDS011;67610;51.588;7.002;2023-04-26T04:05:57;9.90;;;4.68;;
78336;SDS011;67610;51.588;7.002;2023-04-26T04:08:23;9.57;;;4.57;;
78336;SDS011;67610;51.588;7.002;2023-04-26T04:10:48;10.63;;;4.80;;
78336;SDS011;67610;51.588;7.002;2023-04-26T04:13:14;11.80;;;5.18;;
78336;SDS011;67610;51.588;7.002;2023-04-26T04:15:39;13.48;;;4.85;;
78336;SDS011;67610;51.588;7.002;2023-04-26T04:18:04;11.50;;;4.75;;
78336;SDS011;67610;51.588;7.002;2023-04-26T04:20:30;9.02;;;4.78;;
78336;SDS011;67610;51.588;7.002;2023-04-26T04:22:55;12.13;;;4.80;;
78336;SDS011;67610;51.588;7.002;2023-04-26T04:25:22;11.30;;;4.82;;
78336;SDS011;67610;51.588;7.002;2023-04-26T04:27:49;13.75;;;6.20;;
78336;SDS011;67610;51.588;7.002;2023-04-26T04:30:16;12.38;;;5.25;;
78336;SDS011;67610;51.588;7.002;2023-04-26T04:32:41;12.30;;;5.82;;
78336;SDS011;67610;51.588;7.002;2023-04-26T04:35:08;12.25;;;5.07;;
78336;SDS011;67610;51.588;7.002;2023-04-26T04:37:34;11.77;;;5.05;;
78336;SDS011;67610;51.588;7.002;2023-04-26T04:40:00;8.07;;;4.65;;
78336;SDS011;67610;51.588;7.002;2023-04-26T04:42:25;13.00;;;5.03;;
78336;SDS011;67610;51.588;7.002;2023-04-26T04:44:52;12.07;;;5.18;;
78336;SDS011;67610;51.588;7.002;2023-04-26T04:47:18;11.57;;;5.10;;
78336;SDS011;67610;51.588;7.002;2023-04-26T04:49:43;11.10;;;5.05;;
78336;SDS011;67610;51.588;7.002;2023-04-26T04:52:09;10.43;;;4.95;;
78336;SDS011;67610;51.588;7.002;2023-04-26T04:54:34;12.00;;;5.13;;
78336;SDS011;67610;51.588;7.002;2023-04-26T04:57:00;9.90;;;4.32;;
78336;SDS011;67610;51.588;7.002;2023-04-26T04:59:25;13.95;;;4.93;;
78336;SDS011;67610;51.588;7.002;2023-04-26T05:01:51;9.05;;;4.55;;
78336;SDS011;67610;51.588;7.002;2023-04-26T05:04:16;11.48;;;5.03;;
78336;SDS011;67610;51.588;7.002;2023-04-26T05:06:42;11.80;;;4.97;;
78336;SDS011;67610;51.588;7.002;2023-04-26T05:09:07;11.07;;;5.10;;
78336;SDS011;67610;51.588;7.002;2023-04-26T05:11:34;9.52;;;4.93;;
78336;SDS011;67610;51.588;7.002;2023-04-26T05:14:00;10.10;;;5.20;;
78336;SDS011;67610;51.588;7.002;2023-04-26T05:16:25;11.48;;;5.18;;
78336;SDS011;67610;51.588;7.002;2023-04-26T05:18:51;11.40;;;5.47;;
78336;SDS011;67610;51.588;7.002;2023-04-26T05:21:16;9.50;;;5.10;;
78336;SDS011;67610;51.588;7.002;2023-04-26T05:23:42;8.25;;;4.90;;
78336;SDS011;67610;51.588;7.002;2023-04-26T05:26:09;10.82;;;4.78;;
78336;SDS011;67610;51.588;7.002;2023-04-26T05:28:37;9.82;;;5.35;;
78336;SDS011;67610;51.588;7.002;2023-04-26T05:31:02;12.60;;;5.60;;
78336;SDS011;67610;51.588;7.002;2023-04-26T05:33:28;10.75;;;5.47;;
78336;SDS011;67610;51.588;7.002;2023-04-26T05:35:53;10.10;;;5.22;;
78336;SDS011;67610;51.588;7.002;2023-04-26T05:38:21;11.20;;;5.22;;
78336;SDS011;67610;51.588;7.002;2023-04-26T05:40:47;11.27;;;5.50;;
78336;SDS011;67610;51.588;7.002;2023-04-26T05:43:12;12.68;;;4.75;;
78336;SDS011;67610;51.588;7.002;2023-04-26T05:45:38;11.05;;;5.22;;
78336;SDS011;67610;51.588;7.002;2023-04-26T05:48:03;11.45;;;4.78;;
78336;SDS011;67610;51.588;7.002;2023-04-26T05:50:29;12.10;;;4.88;;
78336;SDS011;67610;51.588;7.002;2023-04-26T05:52:55;12.15;;;5.68;;
78336;SDS011;67610;51.588;7.002;2023-04-26T05:55:20;11.77;;;5.10;;
78336;SDS011;67610;51.588;7.002;2023-04-26T05:57:46;12.40;;;6.00;;
78336;SDS011;67610;51.588;7.002;2023-04-26T06:00:11;10.65;;;5.63;;
78336;SDS011;67610;51.588;7.002;2023-04-26T06:02:37;12.75;;;5.63;;
78336;SDS011;67610;51.588;7.002;2023-04-26T06:05:03;12.38;;;6.00;;
78336;SDS011;67610;51.588;7.002;2023-04-26T06:07:32;15.43;;;6.25;;
78336;SDS011;67610;51.588;7.002;2023-04-26T06:09:59;13.85;;;6.18;;
78336;SDS011;67610;51.588;7.002;2023-04-26T06:12:25;10.68;;;5.95;;
78336;SDS011;67610;51.588;7.002;2023-04-26T06:14:50;10.75;;;6.05;;
78336;SDS011;67610;51.588;7.002;2023-04-26T06:17:16;11.68;;;5.60;;
78336;SDS011;67610;51.588;7.002;2023-04-26T06:19:41;12.85;;;5.47;;
78336;SDS011;67610;51.588;7.002;2023-04-26T06:22:06;12.80;;;5.60;;
78336;SDS011;67610;51.588;7.002;2023-04-26T06:24:32;15.57;;;6.57;;
78336;SDS011;67610;51.588;7.002;2023-04-26T06:26:57;14.75;;;5.80;;
78336;SDS011;67610;51.588;7.002;2023-04-26T06:29:22;12.65;;;5.97;;
78336;SDS011;67610;51.588;7.002;2023-04-26T06:31:48;12.93;;;6.03;;
78336;SDS011;67610;51.588;7.002;2023-04-26T06:34:13;11.07;;;5.45;;
78336;SDS011;67610;51.588;7.002;2023-04-26T06:36:38;11.35;;;5.50;;
78336;SDS011;67610;51.588;7.002;2023-04-26T06:39:04;14.73;;;6.47;;
78336;SDS011;67610;51.588;7.002;2023-04-26T06:41:30;9.50;;;5.60;;
78336;SDS011;67610;51.588;7.002;2023-04-26T06:43:55;11.20;;;5.45;;
78336;SDS011;67610;51.588;7.002;2023-04-26T06:46:20;9.82;;;5.43;;
78336;SDS011;67610;51.588;7.002;2023-04-26T06:48:46;9.52;;;5.00;;
78336;SDS011;67610;51.588;7.002;2023-04-26T06:51:11;10.13;;;5.00;;
78336;SDS011;67610;51.588;7.002;2023-04-26T06:53:37;8.77;;;4.43;;
78336;SDS011;67610;51.588;7.002;2023-04-26T06:56:02;9.07;;;4.10;;
78336;SDS011;67610;51.588;7.002;2023-04-26T06:58:28;9.32;;;4.07;;
78336;SDS011;67610;51.588;7.002;2023-04-26T07:00:53;8.93;;;3.97;;
78336;SDS011;67610;51.588;7.002;2023-04-26T07:03:19;6.70;;;3.85;;
78336;SDS011;67610;51.588;7.002;2023-04-26T07:05:44;12.55;;;4.10;;
78336;SDS011;67610;51.588;7.002;2023-04-26T07:08:10;5.72;;;3.72;;
78336;SDS011;67610;51.588;7.002;2023-04-26T07:10:35;7.65;;;3.60;;
78336;SDS011;67610;51.588;7.002;2023-04-26T07:13:03;6.53;;;3.30;;
78336;SDS011;67610;51.588;7.002;2023-04-26T07:15:28;7.85;;;3.63;;
78336;SDS011;67610;51.588;7.002;2023-04-26T07:17:53;9.38;;;4.00;;
78336;SDS011;67610;51.588;7.002;2023-04-26T07:20:19;9.05;;;4.43;;
78336;SDS011;67610;51.588;7.002;2023-04-26T07:22:46;8.98;;;4.55;;
78336;SDS011;67610;51.588;7.002;2023-04-26T07:25:12;11.32;;;4.57;;
78336;SDS011;67610;51.588;7.002;2023-04-26T07:27:37;8.65;;;3.42;;
78336;SDS011;67610;51.588;7.002;2023-04-26T07:30:03;9.63;;;3.53;;
78336;SDS011;67610;51.588;7.002;2023-04-26T07:32:29;8.20;;;3.13;;
78336;SDS011;67610;51.588;7.002;2023-04-26T07:34:55;7.55;;;3.20;;
78336;SDS011;67610;51.588;7.002;2023-04-26T07:37:20;7.72;;;3.17;;
78336;SDS011;67610;51.588;7.002;2023-04-26T07:39:46;5.93;;;2.45;;
78336;SDS011;67610;51.588;7.002;2023-04-26T07:42:11;6.68;;;2.65;;
78336;SDS011;67610;51.588;7.002;2023-04-26T07:44:36;4.97;;;2.60;;
78336;SDS011;67610;51.588;7.002;2023-04-26T07:47:02;7.50;;;2.67;;
78336;SDS011;67610;51.588;7.002;2023-04-26T07:49:27;5.22;;;2.65;;
78336;SDS011;67610;51.588;7.002;2023-04-26T07:51:52;6.22;;;2.60;;
78336;SDS011;67610;51.588;7.002;2023-04-26T07:54:19;7.68;;;2.40;;
78336;SDS011;67610;51.588;7.002;2023-04-26T07:56:44;5.07;;;2.17;;
78336;SDS011;67610;51.588;7.002;2023-04-26T07:59:09;4.13;;;2.25;;
78336;SDS011;67610;51.588;7.002;2023-04-26T08:01:35;6.85;;;2.50;;
78336;SDS011;67610;51.588;7.002;2023-04-26T08:04:00;6.70;;;2.45;;
78336;SDS011;67610;51.588;7.002;2023-04-26T08:06:26;5.07;;;2.00;;
78336;SDS011;67610;51.588;7.002;2023-04-26T08:08:53;5.32;;;2.60;;
78336;SDS011;67610;51.588;7.002;2023-04-26T08:11:18;7.88;;;2.42;;
78336;SDS011;67610;51.588;7.002;2023-04-26T08:13:44;4.75;;;2.10;;
78336;SDS011;67610;51.588;7.002;2023-04-26T08:16:10;7.00;;;2.20;;
78336;SDS011;67610;51.588;7.002;2023-04-26T08:18:35;5.85;;;2.40;;
78336;SDS011;67610;51.588;7.002;2023-04-26T08:21:01;4.65;;;2.70;;
78336;SDS011;67610;51.588;7.002;2023-04-26T08:23:28;5.47;;;2.47;;
78336;SDS011;67610;51.588;7.002;2023-04-26T08:25:56;4.65;;;2.08;;
78336;SDS011;67610;51.588;7.002;2023-04-26T08:28:22;6.03;;;2.35;;
78336;SDS011;67610;51.588;7.002;2023-04-26T08:30:47;4.90;;;2.30;;
78336;SDS011;67610;51.588;7.002;2023-04-26T08:33:12;5.40;;;2.35;;
78336;SDS011;67610;51.588;7.002;2023-04-26T08:35:38;4.85;;;2.00;;
78336;SDS011;67610;51.588;7.002;2023-04-26T08:38:03;7.20;;;2.45;;
78336;SDS011;67610;51.588;7.002;2023-04-26T08:40:28;3.30;;;2.22;;
78336;SDS011;67610;51.588;7.002;2023-04-26T08:42:54;4.68;;;2.35;;
78336;SDS011;67610;51.588;7.002;2023-04-26T08:45:20;6.43;;;2.63;;
78336;SDS011;67610;51.588;7.002;2023-04-26T08:47:52;7.00;;;2.53;;
78336;SDS011;67610;51.588;7.002;2023-04-26T08:50:27;6.05;;;2.70;;
78336;SDS011;67610;51.588;7.002;2023-04-26T08:52:54;5.72;;;2.33;;
78336;SDS011;67610;51.588;7.002;2023-04-26T08:55:20;4.68;;;1.90;;
78336;SDS011;67610;51.588;7.002;2023-04-26T08:57:46;7.60;;;2.60;;
78336;SDS011;67610;51.588;7.002;2023-04-26T09:00:13;5.00;;;2.10;;
78336;SDS011;67610;51.588;7.002;2023-04-26T09:02:40;4.85;;;2.33;;
78336;SDS011;67610;51.588;7.002;2023-04-26T09:05:16;3.70;;;2.17;;
78336;SDS011;67610;51.588;7.002;2023-04-26T09:07:49;5.35;;;2.25;;
78336;SDS011;67610;51.588;7.002;2023-04-26T09:10:18;4.97;;;2.30;;
78336;SDS011;67610;51.588;7.002;2023-04-26T09:12:45;6.03;;;2.60;;
78336;SDS011;67610;51.588;7.002;2023-04-26T09:15:11;4.15;;;2.10;;
78336;SDS011;67610;51.588;7.002;2023-04-26T09:17:39;4.80;;;1.90;;
78336;SDS011;67610;51.588;7.002;2023-04-26T09:20:27;4.82;;;2.20;;
78336;SDS011;67610;51.588;7.002;2023-04-26T09:23:05;2.95;;;1.80;;
78336;SDS011;67610;51.588;7.002;2023-04-26T09:25:32;3.42;;;2.10;;
78336;SDS011;67610;51.588;7.002;2023-04-26T09:27:59;7.05;;;2.78;;
78336;SDS011;67610;51.588;7.002;2023-04-26T09:30:26;6.13;;;2.50;;
78336;SDS011;67610;51.588;7.002;2023-04-26T09:32:53;6.93;;;3.00;;
78336;SDS011;67610;51.588;7.002;2023-04-26T09:35:34;7.78;;;2.92;;
78336;SDS011;67610;51.588;7.002;2023-04-26T09:38:01;4.88;;;2.10;;
78336;SDS011;67610;51.588;7.002;2023-04-26T09:40:31;5.50;;;2.30;;
78336;SDS011;67610;51.588;7.002;2023-04-26T09:42:59;5.97;;;2.20;;
78336;SDS011;67610;51.588;7.002;2023-04-26T09:45:26;4.82;;;2.38;;
78336;SDS011;67610;51.588;7.002;2023-04-26T09:47:53;4.10;;;1.98;;
78336;SDS011;67610;51.588;7.002;2023-04-26T09:50:26;5.60;;;2.53;;
78336;SDS011;67610;51.588;7.002;2023-04-26T09:52:52;5.18;;;2.30;;
78336;SDS011;67610;51.588;7.002;2023-04-26T09:55:24;4.15;;;2.20;;
78336;SDS011;67610;51.588;7.002;2023-04-26T10:00:17;4.40;;;2.10;;
78336;SDS011;67610;51.588;7.002;2023-04-26T10:02:44;3.70;;;2.08;;
78336;SDS011;67610;51.588;7.002;2023-04-26T10:05:10;5.47;;;2.30;;
78336;SDS011;67610;51.588;7.002;2023-04-26T10:07:36;6.80;;;2.05;;
78336;SDS011;67610;51.588;7.002;2023-04-26T10:10:03;6.18;;;2.40;;
78336;SDS011;67610;51.588;7.002;2023-04-26T10:12:29;4.55;;;2.50;;
78336;SDS011;67610;51.588;7.002;2023-04-26T10:14:55;4.40;;;2.25;;
78336;SDS011;67610;51.588;7.002;2023-04-26T10:17:21;3.72;;;1.83;;
78336;SDS011;67610;51.588;7.002;2023-04-26T10:19:47;3.72;;;1.70;;
78336;SDS011;67610;51.588;7.002;2023-04-26T10:22:24;3.13;;;1.85;;
78336;SDS011;67610;51.588;7.002;2023-04-26T10:24:53;3.65;;;2.22;;
78336;SDS011;67610;51.588;7.002;2023-04-26T10:30:07;3.33;;;2.42;;
78336;SDS011;67610;51.588;7.002;2023-04-26T10:33:09;6.43;;;3.05;;
78336;SDS011;67610;51.588;7.002;2023-04-26T10:35:19;10.93;;;5.82;;
78336;SDS011;67610;51.588;7.002;2023-04-26T10:40:32;5.35;;;3.33;;
78336;SDS011;67610;51.588;7.002;2023-04-26T10:43:45;5.35;;;2.13;;
78336;SDS011;67610;51.588;7.002;2023-04-26T10:45:51;5.22;;;2.60;;
78336;SDS011;67610;51.588;7.002;2023-04-26T10:48:23;5.47;;;2.08;;
78336;SDS011;67610;51.588;7.002;2023-04-26T10:58:48;3.80;;;2.33;;
78336;SDS011;67610;51.588;7.002;2023-04-26T11:06:25;4.53;;;2.08;;
78336;SDS011;67610;51.588;7.002;2023-04-26T11:08:52;4.00;;;2.20;;
78336;SDS011;67610;51.588;7.002;2023-04-26T11:11:18;4.38;;;2.30;;
78336;SDS011;67610;51.588;7.002;2023-04-26T11:13:45;4.63;;;2.47;;
78336;SDS011;67610;51.588;7.002;2023-04-26T11:16:11;5.07;;;2.30;;
78336;SDS011;67610;51.588;7.002;2023-04-26T11:18:39;9.07;;;2.75;;
78336;SDS011;67610;51.588;7.002;2023-04-26T11:21:06;5.10;;;2.50;;
78336;SDS011;67610;51.588;7.002;2023-04-26T11:23:32;4.97;;;2.20;;
78336;SDS011;67610;51.588;7.002;2023-04-26T11:26:00;6.47;;;2.78;;
78336;SDS011;67610;51.588;7.002;2023-04-26T11:28:33;6.55;;;2.20;;
78336;SDS011;67610;51.588;7.002;2023-04-26T11:31:00;5.63;;;2.38;;
78336;SDS011;67610;51.588;7.002;2023-04-26T11:33:26;4.53;;;2.05;;
78336;SDS011;67610;51.588;7.002;2023-04-26T11:35:52;6.32;;;2.15;;
78336;SDS011;67610;51.588;7.002;2023-04-26T11:38:22;6.05;;;2.53;;
78336;SDS011;67610;51.588;7.002;2023-04-26T11:40:52;5.38;;;2.05;;
78336;SDS011;67610;51.588;7.002;2023-04-26T11:43:21;4.10;;;2.00;;
78336;SDS011;67610;51.588;7.002;2023-04-26T11:45:47;3.67;;;2.00;;
78336;SDS011;67610;51.588;7.002;2023-04-26T11:48:12;2.78;;;1.83;;
78336;SDS011;67610;51.588;7.002;2023-04-26T11:50:39;5.90;;;2.53;;
78336;SDS011;67610;51.588;7.002;2023-04-26T11:53:06;5.30;;;2.10;;
78336;SDS011;67610;51.588;7.002;2023-04-26T11:55:33;3.55;;;1.98;;
78336;SDS011;67610;51.588;7.002;2023-04-26T11:58:00;3.53;;;1.83;;
78336;SDS011;67610;51.588;7.002;2023-04-26T12:00:27;2.88;;;1.90;;
78336;SDS011;67610;51.588;7.002;2023-04-26T12:02:52;5.00;;;2.03;;
78336;SDS011;67610;51.588;7.002;2023-04-26T12:05:21;4.63;;;2.10;;
78336;SDS011;67610;51.588;7.002;2023-04-26T12:07:54;6.53;;;2.35;;
78336;SDS011;67610;51.588;7.002;2023-04-26T12:10:23;5.88;;;2.35;;
78336;SDS011;67610;51.588;7.002;2023-04-26T12:12:52;3.92;;;2.33;;
78336;SDS011;67610;51.588;7.002;2023-04-26T12:15:24;5.10;;;2.17;;
78336;SDS011;67610;51.588;7.002;2023-04-26T12:17:57;5.50;;;2.60;;
78336;SDS011;67610;51.588;7.002;2023-04-26T12:20:31;5.07;;;2.50;;
78336;SDS011;67610;51.588;7.002;2023-04-26T12:25:53;5.32;;;2.25;;
78336;SDS011;67610;51.588;7.002;2023-04-26T12:28:24;4.30;;;2.00;;
78336;SDS011;67610;51.588;7.002;2023-04-26T12:30:50;5.63;;;2.65;;
78336;SDS011;67610;51.588;7.002;2023-04-26T12:33:16;5.50;;;2.60;;
78336;SDS011;67610;51.588;7.002;2023-04-26T12:38:11;3.42;;;2.20;;
78336;SDS011;67610;51.588;7.002;2023-04-26T12:40:37;6.15;;;2.58;;
78336;SDS011;67610;51.588;7.002;2023-04-26T12:43:03;4.47;;;2.30;;
78336;SDS011;67610;51.588;7.002;2023-04-26T12:45:28;5.55;;;2.38;;
78336;SDS011;67610;51.588;7.002;2023-04-26T12:47:53;6.82;;;2.15;;
78336;SDS011;67610;51.588;7.002;2023-04-26T12:50:19;4.57;;;2.10;;
78336;SDS011;67610;51.588;7.002;2023-04-26T12:52:45;5.38;;;2.50;;
78336;SDS011;67610;51.588;7.002;2023-04-26T12:55:13;5.65;;;2.45;;
78336;SDS011;67610;51.588;7.002;2023-04-26T12:57:40;5.63;;;2.05;;
78336;SDS011;67610;51.588;7.002;2023-04-26T13:00:08;5.13;;;2.33;;
78336;SDS011;67610;51.588;7.002;2023-04-26T13:02:38;4.05;;;2.40;;
78336;SDS011;67610;51.588;7.002;2023-04-26T13:05:04;3.10;;;1.95;;
78336;SDS011;67610;51.588;7.002;2023-04-26T13:07:32;3.85;;;2.00;;
78336;SDS011;67610;51.588;7.002;2023-04-26T13:10:00;4.35;;;2.17;;
78336;SDS011;67610;51.588;7.002;2023-04-26T13:12:26;5.40;;;2.20;;
78336;SDS011;67610;51.588;7.002;2023-04-26T13:14:52;4.07;;;2.30;;
78336;SDS011;67610;51.588;7.002;2023-04-26T13:17:18;4.32;;;2.40;;
78336;SDS011;67610;51.588;7.002;2023-04-26T13:19:44;5.03;;;2.80;;
78336;SDS011;67610;51.588;7.002;2023-04-26T13:22:10;4.00;;;2.20;;
78336;SDS011;67610;51.588;7.002;2023-04-26T13:24:35;3.25;;;2.10;;
78336;SDS011;67610;51.588;7.002;2023-04-26T13:27:01;3.60;;;2.10;;
78336;SDS011;67610;51.588;7.002;2023-04-26T13:29:27;4.75;;;2.20;;
78336;SDS011;67610;51.588;7.002;2023-04-26T13:31:53;4.10;;;2.30;;
78336;SDS011;67610;51.588;7.002;2023-04-26T13:34:19;3.67;;;2.17;;
78336;SDS011;67610;51.588;7.002;2023-04-26T13:36:44;5.13;;;2.30;;
78336;SDS011;67610;51.588;7.002;2023-04-26T13:39:10;4.82;;;2.17;;
78336;SDS011;67610;51.588;7.002;2023-04-26T13:41:35;5.38;;;2.20;;
78336;SDS011;67610;51.588;7.002;2023-04-26T13:44:01;3.88;;;2.20;;
78336;SDS011;67610;51.588;7.002;2023-04-26T13:46:28;3.65;;;1.90;;
78336;SDS011;67610;51.588;7.002;2023-04-26T13:48:55;3.50;;;2.20;;
78336;SDS011;67610;51.588;7.002;2023-04-26T13:51:21;4.97;;;2.50;;
78336;SDS011;67610;51.588;7.002;2023-04-26T13:53:47;4.38;;;2.10;;
78336;SDS011;67610;51.588;7.002;2023-04-26T13:56:12;5.63;;;2.67;;
78336;SDS011;67610;51.588;7.002;2023-04-26T13:58:39;3.95;;;2.33;;
78336;SDS011;67610;51.588;7.002;2023-04-26T14:01:06;4.40;;;2.35;;
78336;SDS011;67610;51.588;7.002;2023-04-26T14:03:31;4.25;;;2.30;;
78336;SDS011;67610;51.588;7.002;2023-04-26T14:05:57;4.30;;;2.17;;
78336;SDS011;67610;51.588;7.002;2023-04-26T14:08:22;5.55;;;2.42;;
78336;SDS011;67610;51.588;7.002;2023-04-26T14:10:48;7.30;;;2.38;;
78336;SDS011;67610;51.588;7.002;2023-04-26T14:13:13;6.95;;;2.35;;
78336;SDS011;67610;51.588;7.002;2023-04-26T14:15:40;10.50;;;5.43;;
78336;SDS011;67610;51.588;7.002;2023-04-26T14:18:05;4.20;;;2.70;;
78336;SDS011;67610;51.588;7.002;2023-04-26T14:20:30;4.32;;;2.35;;
78336;SDS011;67610;51.588;7.002;2023-04-26T14:22:56;4.60;;;2.35;;
78336;SDS011;67610;51.588;7.002;2023-04-26T14:25:21;6.45;;;2.90;;
78336;SDS011;67610;51.588;7.002;2023-04-26T14:27:48;6.38;;;3.10;;
78336;SDS011;67610;51.588;7.002;2023-04-26T14:30:13;7.53;;;3.13;;
78336;SDS011;67610;51.588;7.002;2023-04-26T14:32:39;4.72;;;2.35;;
78336;SDS011;67610;51.588;7.002;2023-04-26T14:35:05;4.07;;;2.35;;
78336;SDS011;67610;51.588;7.002;2023-04-26T14:37:31;3.45;;;2.00;;
78336;SDS011;67610;51.588;7.002;2023-04-26T14:39:56;3.58;;;2.38;;
78336;SDS011;67610;51.588;7.002;2023-04-26T14:42:22;4.05;;;2.33;;
78336;SDS011;67610;51.588;7.002;2023-04-26T14:44:47;5.00;;;2.22;;
78336;SDS011;67610;51.588;7.002;2023-04-26T14:47:13;3.50;;;2.08;;
78336;SDS011;67610;51.588;7.002;2023-04-26T14:49:39;3.85;;;2.53;;
78336;SDS011;67610;51.588;7.002;2023-04-26T14:52:05;5.07;;;2.38;;
78336;SDS011;67610;51.588;7.002;2023-04-26T14:54:35;4.80;;;2.40;;
78336;SDS011;67610;51.588;7.002;2023-04-26T14:57:01;6.28;;;2.30;;
78336;SDS011;67610;51.588;7.002;2023-04-26T14:59:27;4.93;;;2.45;;
78336;SDS011;67610;51.588;7.002;2023-04-26T15:01:52;4.20;;;2.33;;
78336;SDS011;67610;51.588;7.002;2023-04-26T15:04:19;5.45;;;2.60;;
78336;SDS011;67610;51.588;7.002;2023-04-26T15:06:45;8.35;;;2.60;;